sensor_id;sensor_type;location;lat;lon;timestamp;pressure;altitude;pressure_sealevel;temperature;humidity
62524;BME280;53689;56.878;60.672;2023-04-19T00:01:47;99682.75;;;23.21;17.58
62524;BME280;53689;56.878;60.672;2023-04-19T00:04:15;99677.56;;;23.19;16.20
62524;BME280;53689;56.878;60.672;2023-04-19T00:06:43;99677.22;;;23.14;17.04
62524;BME280;53689;56.878;60.672;2023-04-19T00:09:11;99683.47;;;23.14;16.68
62524;BME280;53689;56.878;60.672;2023-04-19T00:11:40;99683.78;;;23.20;16.75
62524;BME280;53689;56.878;60.672;2023-04-19T00:14:07;99679.75;;;23.16;14.98
62524;BME280;53689;56.878;60.672;2023-04-19T00:16:36;99682.75;;;23.21;17.07
62524;BME280;53689;56.878;60.672;2023-04-19T00:19:04;99678.06;;;23.14;16.83
62524;BME280;53689;56.878;60.672;2023-04-19T00:21:31;99685.97;;;23.16;16.81
62524;BME280;53689;56.878;60.672;2023-04-19T00:24:01;99686.84;;;23.17;15.86
62524;BME280;53689;56.878;60.672;2023-04-19T00:26:28;99687.00;;;23.15;16.36
62524;BME280;53689;56.878;60.672;2023-04-19T00:28:56;99679.91;;;23.14;16.26
62524;BME280;53689;56.878;60.672;2023-04-19T00:31:24;99690.56;;;23.16;17.05
62524;BME280;53689;56.878;60.672;2023-04-19T00:33:53;99685.16;;;23.16;16.01
62524;BME280;53689;56.878;60.672;2023-04-19T00:36:20;99690.56;;;23.16;17.43
62524;BME280;53689;56.878;60.672;2023-04-19T00:38:48;99690.38;;;23.17;17.17
62524;BME280;53689;56.878;60.672;2023-04-19T00:41:15;99698.47;;;23.17;16.39
62524;BME280;53689;56.878;60.672;2023-04-19T00:43:43;99695.97;;;23.16;15.60
62524;BME280;53689;56.878;60.672;2023-04-19T00:46:10;99702.84;;;23.18;16.59
62524;BME280;53689;56.878;60.672;2023-04-19T00:48:38;99699.31;;;23.18;16.60
62524;BME280;53689;56.878;60.672;2023-04-19T00:51:07;99697.66;;;23.17;15.03
62524;BME280;53689;56.878;60.672;2023-04-19T00:53:35;99703.38;;;23.13;16.64
62524;BME280;53689;56.878;60.672;2023-04-19T00:56:03;99701.03;;;23.10;15.67
62524;BME280;53689;56.878;60.672;2023-04-19T00:58:31;99710.00;;;23.11;15.51
62524;BME280;53689;56.878;60.672;2023-04-19T01:00:59;99707.44;;;23.09;15.11
62524;BME280;53689;56.878;60.672;2023-04-19T01:03:26;99705.75;;;23.17;16.53
62524;BME280;53689;56.878;60.672;2023-04-19T01:05:55;99706.06;;;23.13;15.11
62524;BME280;53689;56.878;60.672;2023-04-19T01:08:24;99700.00;;;23.11;14.65
62524;BME280;53689;56.878;60.672;2023-04-19T01:10:53;99699.50;;;23.08;14.84
62524;BME280;53689;56.878;60.672;2023-04-19T01:13:20;99707.28;;;23.11;16.25
62524;BME280;53689;56.878;60.672;2023-04-19T01:15:48;99706.41;;;23.19;17.21
62524;BME280;53689;56.878;60.672;2023-04-19T01:18:16;99711.81;;;23.19;17.75
62524;BME280;53689;56.878;60.672;2023-04-19T01:20:43;99714.19;;;23.13;15.28
62524;BME280;53689;56.878;60.672;2023-04-19T01:23:13;99709.28;;;23.17;15.58
62524;BME280;53689;56.878;60.672;2023-04-19T01:25:40;99714.53;;;23.19;16.74
62524;BME280;53689;56.878;60.672;2023-04-19T01:28:08;99714.19;;;23.13;15.65
62524;BME280;53689;56.878;60.672;2023-04-19T01:30:35;99710.63;;;23.21;16.82
62524;BME280;53689;56.878;60.672;2023-04-19T01:33:03;99717.06;;;23.20;14.64
62524;BME280;53689;56.878;60.672;2023-04-19T01:35:31;99712.69;;;23.19;14.82
62524;BME280;53689;56.878;60.672;2023-04-19T01:37:59;99716.88;;;23.22;15.89
62524;BME280;53689;56.878;60.672;2023-04-19T01:40:28;99720.91;;;23.26;15.33
62524;BME280;53689;56.878;60.672;2023-04-19T01:42:57;99716.25;;;23.60;14.50
62524;BME280;53689;56.878;60.672;2023-04-19T01:45:25;99727.72;;;24.02;14.30
62524;BME280;53689;56.878;60.672;2023-04-19T01:47:53;99729.22;;;23.73;13.85
62524;BME280;53689;56.878;60.672;2023-04-19T01:50:21;99731.16;;;23.47;16.35
62524;BME280;53689;56.878;60.672;2023-04-19T01:52:48;99727.03;;;23.28;14.79
62524;BME280;53689;56.878;60.672;2023-04-19T01:55:16;99732.25;;;23.30;15.05
62524;BME280;53689;56.878;60.672;2023-04-19T01:57:45;99728.38;;;23.24;15.50
62524;BME280;53689;56.878;60.672;2023-04-19T02:00:13;99733.06;;;23.22;14.70
62524;BME280;53689;56.878;60.672;2023-04-19T02:02:40;99733.94;;;23.22;16.00
62524;BME280;53689;56.878;60.672;2023-04-19T02:05:09;99735.13;;;23.20;15.91
62524;BME280;53689;56.878;60.672;2023-04-19T02:07:36;99736.63;;;23.22;15.62
62524;BME280;53689;56.878;60.672;2023-04-19T02:10:08;99736.81;;;23.29;17.27
62524;BME280;53689;56.878;60.672;2023-04-19T02:12:35;99739.50;;;23.29;16.02
62524;BME280;53689;56.878;60.672;2023-04-19T02:15:06;99740.00;;;23.24;14.27
62524;BME280;53689;56.878;60.672;2023-04-19T02:17:34;99746.44;;;23.32;16.25
62524;BME280;53689;56.878;60.672;2023-04-19T02:20:03;99744.41;;;23.34;15.61
62524;BME280;53689;56.878;60.672;2023-04-19T02:22:30;99746.25;;;23.33;16.88
62524;BME280;53689;56.878;60.672;2023-04-19T02:24:58;99738.97;;;23.25;15.39
62524;BME280;53689;56.878;60.672;2023-04-19T02:27:29;99738.13;;;23.33;15.50
62524;BME280;53689;56.878;60.672;2023-04-19T02:29:56;99734.59;;;23.33;16.31
62524;BME280;53689;56.878;60.672;2023-04-19T02:32:26;99743.38;;;23.35;15.15
62524;BME280;53689;56.878;60.672;2023-04-19T02:34:53;99737.44;;;23.39;17.61
62524;BME280;53689;56.878;60.672;2023-04-19T02:37:22;99736.78;;;23.37;15.23
62524;BME280;53689;56.878;60.672;2023-04-19T02:39:49;99736.44;;;23.40;17.58
62524;BME280;53689;56.878;60.672;2023-04-19T02:42:17;99735.94;;;23.37;15.46
62524;BME280;53689;56.878;60.672;2023-04-19T02:44:44;99734.44;;;23.34;14.84
62524;BME280;53689;56.878;60.672;2023-04-19T02:47:12;99739.31;;;23.39;16.97
62524;BME280;53689;56.878;60.672;2023-04-19T02:49:41;99738.47;;;23.38;16.98
62524;BME280;53689;56.878;60.672;2023-04-19T02:52:09;99743.72;;;23.40;15.80
62524;BME280;53689;56.878;60.672;2023-04-19T02:54:39;99742.19;;;23.37;16.94
62524;BME280;53689;56.878;60.672;2023-04-19T02:57:06;99740.84;;;23.33;17.12
62524;BME280;53689;56.878;60.672;2023-04-19T02:59:34;99746.06;;;23.26;16.75
62524;BME280;53689;56.878;60.672;2023-04-19T03:02:04;99734.75;;;23.23;14.48
62524;BME280;53689;56.878;60.672;2023-04-19T03:04:31;99748.09;;;23.24;15.04
62524;BME280;53689;56.878;60.672;2023-04-19T03:07:01;99751.00;;;23.14;16.48
62524;BME280;53689;56.878;60.672;2023-04-19T03:09:29;99751.66;;;23.25;16.54
62524;BME280;53689;56.878;60.672;2023-04-19T03:11:57;99749.28;;;23.22;16.19
62524;BME280;53689;56.878;60.672;2023-04-19T03:14:24;99747.78;;;23.19;16.84
62524;BME280;53689;56.878;60.672;2023-04-19T03:16:52;99747.59;;;23.21;16.90
62524;BME280;53689;56.878;60.672;2023-04-19T03:19:20;99743.38;;;23.26;17.21
62524;BME280;53689;56.878;60.672;2023-04-19T03:21:50;99743.56;;;23.25;17.06
62524;BME280;53689;56.878;60.672;2023-04-19T03:24:28;99749.28;;;23.22;15.76
62524;BME280;53689;56.878;60.672;2023-04-19T03:26:58;99744.91;;;23.21;16.54
62524;BME280;53689;56.878;60.672;2023-04-19T03:29:28;99742.69;;;23.24;17.84
62524;BME280;53689;56.878;60.672;2023-04-19T03:32:02;99740.53;;;23.28;17.96
62524;BME280;53689;56.878;60.672;2023-04-19T03:34:30;99742.88;;;23.23;17.05
62524;BME280;53689;56.878;60.672;2023-04-19T03:36:58;99753.34;;;23.26;17.48
62524;BME280;53689;56.878;60.672;2023-04-19T03:39:27;99749.78;;;23.25;15.62
62524;BME280;53689;56.878;60.672;2023-04-19T03:41:59;99744.06;;;23.28;16.42
62524;BME280;53689;56.878;60.672;2023-04-19T03:44:45;99742.22;;;23.29;17.47
62524;BME280;53689;56.878;60.672;2023-04-19T03:47:16;99747.63;;;23.29;17.29
62524;BME280;53689;56.878;60.672;2023-04-19T03:49:47;99743.22;;;23.36;18.12
62524;BME280;53689;56.878;60.672;2023-04-19T03:52:16;99749.28;;;23.38;17.58
62524;BME280;53689;56.878;60.672;2023-04-19T03:54:45;99749.44;;;23.37;17.89
62524;BME280;53689;56.878;60.672;2023-04-19T03:57:24;99743.38;;;23.35;17.76
62524;BME280;53689;56.878;60.672;2023-04-19T03:59:54;99742.88;;;23.31;17.62
62524;BME280;53689;56.878;60.672;2023-04-19T04:02:22;99749.13;;;23.32;17.46
62524;BME280;53689;56.878;60.672;2023-04-19T04:04:52;99747.28;;;23.24;14.50
62524;BME280;53689;56.878;60.672;2023-04-19T04:07:21;99741.19;;;23.30;17.40
62524;BME280;53689;56.878;60.672;2023-04-19T04:09:51;99755.03;;;23.27;16.30
62524;BME280;53689;56.878;60.672;2023-04-19T04:12:19;99758.75;;;23.26;14.42
62524;BME280;53689;56.878;60.672;2023-04-19T04:14:47;99756.06;;;23.26;13.79
62524;BME280;53689;56.878;60.672;2023-04-19T04:17:15;99744.91;;;23.29;17.03
62524;BME280;53689;56.878;60.672;2023-04-19T04:19:43;99760.28;;;23.28;16.62
62524;BME280;53689;56.878;60.672;2023-04-19T04:22:11;99762.28;;;23.26;15.18
62524;BME280;53689;56.878;60.672;2023-04-19T04:24:41;99759.56;;;23.26;16.43
62524;BME280;53689;56.878;60.672;2023-04-19T04:27:22;99756.56;;;23.21;17.47
62524;BME280;53689;56.878;60.672;2023-04-19T04:29:52;99760.09;;;23.22;14.20
62524;BME280;53689;56.878;60.672;2023-04-19T04:32:22;99767.38;;;23.21;16.07
62524;BME280;53689;56.878;60.672;2023-04-19T04:34:56;99763.31;;;23.17;14.36
62524;BME280;53689;56.878;60.672;2023-04-19T04:37:35;99762.81;;;23.13;14.24
62524;BME280;53689;56.878;60.672;2023-04-19T04:40:04;99760.09;;;23.13;16.14
62524;BME280;53689;56.878;60.672;2023-04-19T04:42:34;99756.06;;;23.09;14.75
62524;BME280;53689;56.878;60.672;2023-04-19T04:45:02;99758.75;;;23.26;15.15
62524;BME280;53689;56.878;60.672;2023-04-19T04:47:31;99763.84;;;23.29;17.67
62524;BME280;53689;56.878;60.672;2023-04-19T04:50:04;99759.25;;;23.21;16.82
62524;BME280;53689;56.878;60.672;2023-04-19T04:52:31;99758.75;;;23.18;17.45
62524;BME280;53689;56.878;60.672;2023-04-19T04:55:12;99759.94;;;23.23;16.65
62524;BME280;53689;56.878;60.672;2023-04-19T04:57:45;99755.03;;;23.19;17.23
62524;BME280;53689;56.878;60.672;2023-04-19T05:00:19;99759.09;;;23.31;17.89
62524;BME280;53689;56.878;60.672;2023-04-19T05:03:00;99763.47;;;23.32;15.55
62524;BME280;53689;56.878;60.672;2023-04-19T05:05:30;99762.47;;;23.25;16.53
62524;BME280;53689;56.878;60.672;2023-04-19T05:07:57;99768.91;;;23.24;17.41
62524;BME280;53689;56.878;60.672;2023-04-19T05:10:25;99764.69;;;23.30;16.94
62524;BME280;53689;56.878;60.672;2023-04-19T05:12:54;99761.47;;;23.18;16.54
62524;BME280;53689;56.878;60.672;2023-04-19T05:15:22;99764.16;;;23.26;17.15
62524;BME280;53689;56.878;60.672;2023-04-19T05:17:53;99764.50;;;23.31;17.45
62524;BME280;53689;56.878;60.672;2023-04-19T05:20:21;99765.56;;;23.05;17.65
62524;BME280;53689;56.878;60.672;2023-04-19T05:22:58;99762.47;;;23.17;17.47
62524;BME280;53689;56.878;60.672;2023-04-19T05:25:25;99762.13;;;23.20;17.05
62524;BME280;53689;56.878;60.672;2023-04-19T05:27:55;99757.75;;;23.19;16.85
62524;BME280;53689;56.878;60.672;2023-04-19T05:30:23;99763.97;;;23.27;16.52
62524;BME280;53689;56.878;60.672;2023-04-19T05:32:51;99761.31;;;23.11;17.53
62524;BME280;53689;56.878;60.672;2023-04-19T05:35:19;99757.22;;;23.23;16.75
62524;BME280;53689;56.878;60.672;2023-04-19T05:37:47;99764.19;;;23.01;17.09
62524;BME280;53689;56.878;60.672;2023-04-19T05:40:15;99757.59;;;23.12;15.78
62524;BME280;53689;56.878;60.672;2023-04-19T05:42:42;99763.66;;;23.22;15.74
62524;BME280;53689;56.878;60.672;2023-04-19T05:45:12;99758.25;;;23.14;15.97
62524;BME280;53689;56.878;60.672;2023-04-19T05:47:39;99761.47;;;23.18;16.13
62524;BME280;53689;56.878;60.672;2023-04-19T05:50:25;99757.78;;;22.94;15.24
62524;BME280;53689;56.878;60.672;2023-04-19T05:53:13;99748.50;;;23.05;15.52
62524;BME280;53689;56.878;60.672;2023-04-19T05:55:41;99758.09;;;23.16;16.01
62524;BME280;53689;56.878;60.672;2023-04-19T05:58:09;99759.28;;;23.05;14.73
62524;BME280;53689;56.878;60.672;2023-04-19T06:00:38;99757.75;;;23.10;15.71
62524;BME280;53689;56.878;60.672;2023-04-19T06:03:11;99748.09;;;23.24;15.81
62524;BME280;53689;56.878;60.672;2023-04-19T06:05:39;99748.28;;;23.31;15.45
62524;BME280;53689;56.878;60.672;2023-04-19T06:08:06;99755.72;;;23.21;15.92
62524;BME280;53689;56.878;60.672;2023-04-19T06:10:34;99755.84;;;23.27;15.64
62524;BME280;53689;56.878;60.672;2023-04-19T06:13:19;99745.25;;;23.26;16.22
62524;BME280;53689;56.878;60.672;2023-04-19T06:15:48;99754.88;;;23.28;14.83
62524;BME280;53689;56.878;60.672;2023-04-19T06:18:16;99752.69;;;23.24;15.96
62524;BME280;53689;56.878;60.672;2023-04-19T06:20:45;99755.53;;;23.22;16.09
62524;BME280;53689;56.878;60.672;2023-04-19T06:23:13;99750.66;;;23.18;16.22
62524;BME280;53689;56.878;60.672;2023-04-19T06:25:41;99749.31;;;23.13;14.57
62524;BME280;53689;56.878;60.672;2023-04-19T06:28:08;99747.28;;;23.24;14.92
62524;BME280;53689;56.878;60.672;2023-04-19T06:30:36;99746.91;;;23.27;15.46
62524;BME280;53689;56.878;60.672;2023-04-19T06:33:05;99745.91;;;23.36;13.81
62524;BME280;53689;56.878;60.672;2023-04-19T06:35:33;99737.44;;;23.39;15.46
62524;BME280;53689;56.878;60.672;2023-04-19T06:38:00;99738.13;;;23.33;16.50
62524;BME280;53689;56.878;60.672;2023-04-19T06:40:28;99737.16;;;23.34;15.79
62524;BME280;53689;56.878;60.672;2023-04-19T06:42:55;99738.81;;;23.35;16.51
62524;BME280;53689;56.878;60.672;2023-04-19T06:45:23;99741.53;;;23.35;15.63
62524;BME280;53689;56.878;60.672;2023-04-19T06:47:50;99737.97;;;23.35;16.89
62524;BME280;53689;56.878;60.672;2023-04-19T06:50:20;99734.59;;;23.33;16.13
62524;BME280;53689;56.878;60.672;2023-04-19T06:52:47;99736.25;;;23.42;14.41
62524;BME280;53689;56.878;60.672;2023-04-19T06:55:16;99729.03;;;23.34;15.62
62524;BME280;53689;56.878;60.672;2023-04-19T06:57:43;99733.22;;;23.37;16.13
62524;BME280;53689;56.878;60.672;2023-04-19T07:00:12;99735.63;;;23.32;16.49
62524;BME280;53689;56.878;60.672;2023-04-19T07:02:40;99731.38;;;23.37;15.62
62524;BME280;53689;56.878;60.672;2023-04-19T07:05:07;99726.81;;;23.38;15.73
62524;BME280;53689;56.878;60.672;2023-04-19T07:07:37;99738.28;;;23.48;13.45
62524;BME280;53689;56.878;60.672;2023-04-19T07:10:05;99734.69;;;23.56;13.47
62524;BME280;53689;56.878;60.672;2023-04-19T07:12:33;99728.16;;;23.42;14.68
62524;BME280;53689;56.878;60.672;2023-04-19T07:15:00;99734.75;;;23.39;15.22
62524;BME280;53689;56.878;60.672;2023-04-19T07:17:28;99726.47;;;23.41;15.33
62524;BME280;53689;56.878;60.672;2023-04-19T07:19:56;99721.03;;;23.49;14.03
62524;BME280;53689;56.878;60.672;2023-04-19T07:22:23;99716.44;;;23.58;13.51
62524;BME280;53689;56.878;60.672;2023-04-19T07:24:53;99720.28;;;23.64;13.55
62524;BME280;53689;56.878;60.672;2023-04-19T07:27:20;99721.47;;;23.61;13.52
62524;BME280;53689;56.878;60.672;2023-04-19T07:29:48;99713.34;;;23.69;13.47
62524;BME280;53689;56.878;60.672;2023-04-19T07:32:16;99710.34;;;23.64;13.70
62524;BME280;53689;56.878;60.672;2023-04-19T07:34:44;99709.84;;;23.61;13.94
62524;BME280;53689;56.878;60.672;2023-04-19T07:37:11;99717.41;;;23.65;13.31
62524;BME280;53689;56.878;60.672;2023-04-19T07:39:39;99707.91;;;23.69;13.57
62524;BME280;53689;56.878;60.672;2023-04-19T07:42:08;99701.31;;;23.72;13.23
62524;BME280;53689;56.878;60.672;2023-04-19T07:44:36;99708.22;;;23.83;13.08
62524;BME280;53689;56.878;60.672;2023-04-19T07:47:04;99695.88;;;23.80;13.33
62524;BME280;53689;56.878;60.672;2023-04-19T07:49:32;99698.03;;;23.85;12.95
62524;BME280;53689;56.878;60.672;2023-04-19T07:52:00;99696.00;;;23.87;13.28
62524;BME280;53689;56.878;60.672;2023-04-19T07:54:27;99698.03;;;23.85;13.33
62524;BME280;53689;56.878;60.672;2023-04-19T07:56:55;99695.72;;;23.82;13.05
62524;BME280;53689;56.878;60.672;2023-04-19T07:59:24;99689.44;;;23.81;13.10
62524;BME280;53689;56.878;60.672;2023-04-19T08:01:52;99693.28;;;23.87;13.34
62524;BME280;53689;56.878;60.672;2023-04-19T08:04:20;99687.56;;;23.90;13.72
62524;BME280;53689;56.878;60.672;2023-04-19T08:06:48;99686.88;;;23.88;12.78
62524;BME280;53689;56.878;60.672;2023-04-19T08:09:16;99694.38;;;23.78;15.66
62524;BME280;53689;56.878;60.672;2023-04-19T08:11:43;99687.34;;;23.92;13.31
62524;BME280;53689;56.878;60.672;2023-04-19T08:14:11;99691.78;;;23.84;13.29
62524;BME280;53689;56.878;60.672;2023-04-19T08:17:00;99689.94;;;23.85;13.85
62524;BME280;53689;56.878;60.672;2023-04-19T08:19:31;99691.44;;;23.88;13.82
62524;BME280;53689;56.878;60.672;2023-04-19T08:21:59;99681.66;;;23.87;12.97
62524;BME280;53689;56.878;60.672;2023-04-19T08:24:27;99680.69;;;23.79;13.71
62524;BME280;53689;56.878;60.672;2023-04-19T08:26:55;99679.66;;;23.80;13.24
62524;BME280;53689;56.878;60.672;2023-04-19T08:29:26;99674.03;;;23.90;13.19
62524;BME280;53689;56.878;60.672;2023-04-19T08:31:53;99668.47;;;23.83;12.90
62524;BME280;53689;56.878;60.672;2023-04-19T08:34:22;99675.09;;;23.81;13.54
62524;BME280;53689;56.878;60.672;2023-04-19T08:36:50;99670.56;;;23.73;14.31
62524;BME280;53689;56.878;60.672;2023-04-19T08:39:30;99669.59;;;23.89;13.04
62524;BME280;53689;56.878;60.672;2023-04-19T08:42:03;99666.25;;;23.87;13.10
62524;BME280;53689;56.878;60.672;2023-04-19T08:44:45;99665.59;;;23.85;12.57
62524;BME280;53689;56.878;60.672;2023-04-19T08:47:16;99659.16;;;23.86;13.65
62524;BME280;53689;56.878;60.672;2023-04-19T08:49:59;99667.38;;;23.93;12.85
62524;BME280;53689;56.878;60.672;2023-04-19T08:52:43;99662.63;;;23.95;12.95
62524;BME280;53689;56.878;60.672;2023-04-19T08:55:24;99653.22;;;23.91;12.78
62524;BME280;53689;56.878;60.672;2023-04-19T08:57:52;99660.66;;;23.89;12.90
62524;BME280;53689;56.878;60.672;2023-04-19T09:00:22;99655.63;;;23.86;12.79
62524;BME280;53689;56.878;60.672;2023-04-19T09:02:51;99646.25;;;23.96;12.90
62524;BME280;53689;56.878;60.672;2023-04-19T09:05:21;99649.72;;;23.82;13.77
62524;BME280;53689;56.878;60.672;2023-04-19T09:07:50;99650.28;;;23.77;13.52
62524;BME280;53689;56.878;60.672;2023-04-19T09:10:19;99649.03;;;23.80;13.07
62524;BME280;53689;56.878;60.672;2023-04-19T09:13:01;99651.75;;;23.80;13.46
62524;BME280;53689;56.878;60.672;2023-04-19T09:15:39;99645.09;;;23.91;12.97
62524;BME280;53689;56.878;60.672;2023-04-19T09:18:08;99649.00;;;23.88;12.83
62524;BME280;53689;56.878;60.672;2023-04-19T09:20:38;99636.44;;;23.95;12.61
62524;BME280;53689;56.878;60.672;2023-04-19T09:23:08;99637.59;;;24.01;17.20
62524;BME280;53689;56.878;60.672;2023-04-19T09:25:36;99634.75;;;23.94;14.50
62524;BME280;53689;56.878;60.672;2023-04-19T09:28:24;99632.34;;;24.00;12.58
62524;BME280;53689;56.878;60.672;2023-04-19T09:30:52;99636.53;;;24.10;12.90
62524;BME280;53689;56.878;60.672;2023-04-19T09:33:32;99630.94;;;24.12;12.61
62524;BME280;53689;56.878;60.672;2023-04-19T09:36:02;99638.03;;;24.13;12.88
62524;BME280;53689;56.878;60.672;2023-04-19T09:38:30;99627.59;;;24.10;12.44
62524;BME280;53689;56.878;60.672;2023-04-19T09:41:12;99627.41;;;24.03;14.00
62524;BME280;53689;56.878;60.672;2023-04-19T09:43:40;99620.59;;;24.16;13.18
62524;BME280;53689;56.878;60.672;2023-04-19T09:46:29;99621.16;;;24.11;14.79
62524;BME280;53689;56.878;60.672;2023-04-19T09:49:14;99615.44;;;24.44;13.38
62524;BME280;53689;56.878;60.672;2023-04-19T09:52:04;99611.50;;;24.32;13.22
62524;BME280;53689;56.878;60.672;2023-04-19T09:54:32;99606.47;;;24.29;12.61
62524;BME280;53689;56.878;60.672;2023-04-19T09:57:00;99604.47;;;24.22;12.66
62524;BME280;53689;56.878;60.672;2023-04-19T09:59:28;99598.13;;;24.30;13.10
62524;BME280;53689;56.878;60.672;2023-04-19T10:01:58;99603.00;;;24.35;13.07
62524;BME280;53689;56.878;60.672;2023-04-19T10:04:26;99602.72;;;24.30;12.65
62524;BME280;53689;56.878;60.672;2023-04-19T10:07:15;99600.38;;;24.27;12.52
62524;BME280;53689;56.878;60.672;2023-04-19T10:09:48;99603.06;;;24.27;12.83
62524;BME280;53689;56.878;60.672;2023-04-19T10:12:23;99600.50;;;24.33;13.03
62524;BME280;53689;56.878;60.672;2023-04-19T10:15:12;99592.19;;;24.35;12.94
62524;BME280;53689;56.878;60.672;2023-04-19T10:17:40;99596.22;;;24.39;12.68
62524;BME280;53689;56.878;60.672;2023-04-19T10:20:13;99590.66;;;24.32;12.70
62524;BME280;53689;56.878;60.672;2023-04-19T10:22:46;99587.41;;;24.37;12.76
62524;BME280;53689;56.878;60.672;2023-04-19T10:25:16;99581.00;;;24.38;12.45
62524;BME280;53689;56.878;60.672;2023-04-19T10:27:44;99577.63;;;24.51;12.23
62524;BME280;53689;56.878;60.672;2023-04-19T10:30:19;99586.22;;;24.70;12.88
62524;BME280;53689;56.878;60.672;2023-04-19T10:32:51;99579.91;;;24.47;12.69
62524;BME280;53689;56.878;60.672;2023-04-19T10:35:21;99582.19;;;24.35;12.70
62524;BME280;53689;56.878;60.672;2023-04-19T10:38:06;99570.63;;;24.42;12.67
62524;BME280;53689;56.878;60.672;2023-04-19T10:40:53;99569.69;;;24.34;12.23
62524;BME280;53689;56.878;60.672;2023-04-19T10:43:22;99569.56;;;24.28;12.92
62524;BME280;53689;56.878;60.672;2023-04-19T10:45:50;99563.44;;;24.34;12.88
62524;BME280;53689;56.878;60.672;2023-04-19T10:48:37;99572.69;;;24.70;12.46
62524;BME280;53689;56.878;60.672;2023-04-19T10:51:16;99571.09;;;24.45;12.83
62524;BME280;53689;56.878;60.672;2023-04-19T10:53:50;99567.25;;;24.39;12.93
62524;BME280;53689;56.878;60.672;2023-04-19T10:56:20;99571.94;;;24.46;12.95
62524;BME280;53689;56.878;60.672;2023-04-19T10:59:16;99566.72;;;24.44;12.70
62524;BME280;53689;56.878;60.672;2023-04-19T11:01:46;99566.81;;;24.51;12.66
62524;BME280;53689;56.878;60.672;2023-04-19T11:04:16;99567.66;;;24.66;12.89
62524;BME280;53689;56.878;60.672;2023-04-19T11:07:00;99571.94;;;24.76;12.85
62524;BME280;53689;56.878;60.672;2023-04-19T11:09:32;99561.84;;;24.70;12.47
62524;BME280;53689;56.878;60.672;2023-04-19T11:12:03;99565.13;;;24.65;12.85
62524;BME280;53689;56.878;60.672;2023-04-19T11:14:33;99561.81;;;24.78;13.21
62524;BME280;53689;56.878;60.672;2023-04-19T11:17:03;99555.25;;;24.72;12.72
62524;BME280;53689;56.878;60.672;2023-04-19T11:19:31;99555.69;;;25.06;12.54
62524;BME280;53689;56.878;60.672;2023-04-19T11:21:58;99552.69;;;25.16;12.71
62524;BME280;53689;56.878;60.672;2023-04-19T11:24:26;99548.13;;;25.01;12.63
62524;BME280;53689;56.878;60.672;2023-04-19T11:26:56;99556.03;;;24.81;12.76
62524;BME280;53689;56.878;60.672;2023-04-19T11:29:23;99547.84;;;24.66;13.28
62524;BME280;53689;56.878;60.672;2023-04-19T11:31:51;99544.97;;;24.83;12.84
62524;BME280;53689;56.878;60.672;2023-04-19T11:34:22;99546.47;;;24.70;13.24
62524;BME280;53689;56.878;60.672;2023-04-19T11:36:50;99544.78;;;24.69;13.44
62524;BME280;53689;56.878;60.672;2023-04-19T11:39:18;99541.69;;;25.02;12.55
62524;BME280;53689;56.878;60.672;2023-04-19T11:41:45;99534.16;;;24.83;13.17
62524;BME280;53689;56.878;60.672;2023-04-19T11:44:15;99537.69;;;24.98;13.09
62524;BME280;53689;56.878;60.672;2023-04-19T11:46:56;99530.06;;;24.87;12.76
62524;BME280;53689;56.878;60.672;2023-04-19T11:49:28;99516.88;;;24.84;12.76
62524;BME280;53689;56.878;60.672;2023-04-19T11:51:58;99514.72;;;24.79;12.59
62524;BME280;53689;56.878;60.672;2023-04-19T11:54:25;99512.94;;;24.86;12.59
62524;BME280;53689;56.878;60.672;2023-04-19T11:56:57;99515.91;;;25.06;12.66
62524;BME280;53689;56.878;60.672;2023-04-19T11:59:27;99507.50;;;25.01;12.43
62524;BME280;53689;56.878;60.672;2023-04-19T12:01:55;99503.78;;;24.87;12.98
62524;BME280;53689;56.878;60.672;2023-04-19T12:04:22;99501.63;;;24.98;13.05
62524;BME280;53689;56.878;60.672;2023-04-19T12:06:56;99498.59;;;24.86;12.59
62524;BME280;53689;56.878;60.672;2023-04-19T12:09:24;99499.00;;;24.89;12.81
62524;BME280;53689;56.878;60.672;2023-04-19T12:11:52;99491.88;;;25.03;12.65
62524;BME280;53689;56.878;60.672;2023-04-19T12:14:21;99492.28;;;25.22;12.54
62524;BME280;53689;56.878;60.672;2023-04-19T12:17:11;99493.13;;;25.01;12.75
62524;BME280;53689;56.878;60.672;2023-04-19T12:19:42;99493.88;;;24.94;13.00
62524;BME280;53689;56.878;60.672;2023-04-19T12:22:12;99495.72;;;24.94;13.21
62524;BME280;53689;56.878;60.672;2023-04-19T12:24:41;99487.91;;;24.99;13.28
62524;BME280;53689;56.878;60.672;2023-04-19T12:27:09;99488.94;;;24.98;13.00
62524;BME280;53689;56.878;60.672;2023-04-19T12:29:37;99487.84;;;25.14;12.96
62524;BME280;53689;56.878;60.672;2023-04-19T12:32:05;99483.28;;;25.15;12.58
62524;BME280;53689;56.878;60.672;2023-04-19T12:34:34;99487.78;;;25.07;13.19
62524;BME280;53689;56.878;60.672;2023-04-19T12:37:01;99480.41;;;25.01;12.53
62524;BME280;53689;56.878;60.672;2023-04-19T12:39:29;99482.38;;;25.07;13.03
62524;BME280;53689;56.878;60.672;2023-04-19T12:41:57;99475.28;;;25.06;12.56
62524;BME280;53689;56.878;60.672;2023-04-19T12:44:24;99472.56;;;25.06;12.74
62524;BME280;53689;56.878;60.672;2023-04-19T12:46:52;99480.97;;;25.33;12.48
62524;BME280;53689;56.878;60.672;2023-04-19T12:49:20;99479.06;;;25.12;12.75
62524;BME280;53689;56.878;60.672;2023-04-19T12:51:48;99474.94;;;25.16;12.83
62524;BME280;53689;56.878;60.672;2023-04-19T12:54:16;99463.00;;;25.11;13.15
62524;BME280;53689;56.878;60.672;2023-04-19T12:56:44;99471.41;;;25.16;12.76
62524;BME280;53689;56.878;60.672;2023-04-19T12:59:11;99461.50;;;25.08;12.79
62524;BME280;53689;56.878;60.672;2023-04-19T13:01:39;99463.91;;;25.18;13.24
62524;BME280;53689;56.878;60.672;2023-04-19T13:04:06;99468.19;;;25.27;12.68
62524;BME280;53689;56.878;60.672;2023-04-19T13:06:35;99465.66;;;25.26;13.23